createdAt,value
2023-05-23T04:22:36.470Z,40.12
2023-05-23T04:46:35.508Z,41.58
2023-05-23T04:49:19.611Z,41.53
2023-05-23T05:51:19.487Z,43.33
2023-05-23T06:04:43.269Z,43.30
2023-05-23T06:21:16.917Z,43.91
2023-05-23T06:24:10.105Z,43.87
2023-05-23T06:26:41.681Z,43.80
2023-05-23T06:29:14.722Z,43.89
2023-05-23T06:31:46.573Z,44.05
2023-05-23T06:34:16.521Z,44.28
2023-05-23T06:36:48.274Z,44.01
2023-05-23T06:39:19.675Z,43.85
2023-05-23T06:41:50.754Z,43.83
2023-05-23T06:44:23.000Z,43.95
2023-05-23T06:46:58.917Z,43.65
2023-05-23T06:49:28.518Z,44.24
2023-05-23T06:51:59.688Z,43.83
2023-05-23T06:54:29.404Z,44.15
2023-05-23T06:57:18.570Z,44.34
2023-05-23T06:59:48.584Z,44.41
2023-05-23T07:02:19.342Z,44.73
2023-05-23T07:04:53.378Z,44.62
2023-05-23T07:07:44.601Z,44.67
2023-05-23T07:10:15.303Z,44.79
2023-05-23T07:12:45.953Z,44.67
2023-05-23T07:15:18.030Z,44.97
2023-05-23T07:18:02.703Z,45.04
2023-05-23T07:20:36.004Z,45.28
2023-05-23T07:23:14.273Z,45.13
2023-05-23T07:26:02.641Z,45.58
2023-05-23T07:28:47.858Z,45.59
2023-05-23T07:31:19.054Z,45.38
2023-05-23T07:33:49.492Z,45.44
2023-05-23T07:36:29.169Z,45.36
2023-05-23T07:38:58.642Z,45.31
2023-05-23T07:41:29.136Z,45.77
2023-05-23T07:43:58.893Z,46.06
2023-05-23T07:46:29.276Z,45.68
2023-05-23T07:49:00.519Z,46.02
2023-05-23T07:51:30.270Z,45.77
2023-05-23T07:54:00.199Z,45.55
2023-05-23T07:56:32.399Z,45.38
2023-05-23T07:59:02.545Z,45.60
2023-05-23T08:01:32.815Z,45.68
2023-05-23T08:04:09.713Z,45.53
2023-05-23T08:07:04.404Z,45.61
2023-05-23T08:09:45.404Z,45.41
2023-05-23T08:12:22.388Z,45.81
2023-05-23T08:15:00.832Z,45.58
2023-05-23T08:17:35.342Z,45.87
2023-05-23T08:20:13.018Z,46.10
2023-05-23T08:26:54.373Z,45.80
2023-05-23T08:29:24.255Z,45.89
2023-05-23T08:32:13.568Z,46.12
2023-05-23T08:35:04.881Z,45.76
2023-05-23T08:37:59.591Z,45.77
2023-05-23T08:40:53.382Z,45.79
2023-05-23T08:43:45.496Z,45.32
2023-05-23T08:46:47.313Z,44.75
2023-05-23T08:49:49.356Z,44.60
2023-05-23T08:52:52.068Z,44.53
2023-05-23T08:55:42.493Z,44.07
2023-05-23T08:58:35.422Z,43.50
2023-05-23T09:01:27.943Z,43.18
2023-05-23T09:04:21.512Z,42.81
2023-05-23T09:07:21.218Z,42.69
2023-05-23T09:10:17.944Z,42.52
2023-05-23T09:13:11.270Z,41.96
2023-05-23T09:16:09.048Z,42.02
2023-05-23T09:19:13.867Z,41.99
2023-05-23T09:22:10.454Z,41.64
2023-05-23T09:25:13.533Z,41.56
2023-05-23T09:28:06.119Z,41.25
2023-05-23T12:19:08.694Z,42.72
2023-05-23T12:21:44.039Z,42.67
2023-05-23T12:24:18.511Z,42.62
2023-05-23T12:26:49.474Z,42.52
2023-05-23T12:32:07.554Z,42.45
2023-05-23T12:34:42.473Z,42.31
2023-05-23T12:37:19.452Z,42.38
2023-05-23T12:39:49.692Z,42.36
2023-05-23T12:42:19.256Z,42.21
2023-05-23T12:44:52.783Z,42.14
2023-05-23T12:47:22.463Z,41.87
2023-05-23T12:49:51.573Z,41.88
2023-05-23T12:52:20.917Z,41.49
2023-05-23T12:54:50.484Z,41.69
2023-05-23T12:57:19.981Z,41.73
2023-05-23T12:59:49.189Z,41.59
2023-05-23T13:02:18.616Z,41.48
2023-05-23T13:04:47.787Z,41.28
2023-05-23T13:07:17.714Z,41.19
2023-05-23T13:09:46.870Z,41.02
2023-05-23T13:12:16.188Z,40.94
2023-05-23T13:14:45.390Z,40.87
2023-05-23T13:17:15.483Z,40.76
2023-05-23T13:19:47.925Z,40.71
2023-05-23T13:22:20.469Z,40.58
2023-05-23T13:24:49.951Z,40.50
2023-05-23T13:27:19.712Z,40.44
2023-05-23T13:29:49.087Z,40.33
2023-05-23T13:32:18.735Z,40.20
2023-05-23T13:34:47.908Z,40.15
2023-05-23T13:37:17.406Z,39.99
2023-05-23T13:39:46.861Z,39.98
2023-05-23T13:42:16.868Z,39.90
2023-05-23T13:44:45.900Z,39.89
2023-05-23T13:47:16.774Z,39.82
2023-05-23T13:49:46.678Z,39.97
2023-05-23T13:52:16.233Z,39.77
2023-05-23T13:54:45.461Z,39.68
2023-05-23T13:57:14.953Z,39.57
2023-05-23T13:59:44.104Z,39.38
2023-05-23T14:02:13.604Z,39.32
2023-05-23T14:04:42.760Z,39.30
2023-05-23T14:07:12.125Z,39.27
2023-05-23T14:09:41.838Z,39.15
2023-05-23T14:12:11.158Z,39.06
2023-05-23T14:14:40.275Z,38.97
2023-05-23T14:17:09.677Z,38.87
2023-05-23T14:19:39.114Z,38.77
2023-05-23T14:22:08.550Z,38.71
2023-05-23T14:24:37.570Z,38.67
2023-05-23T14:27:10.230Z,38.58
2023-05-23T14:29:41.695Z,38.64
2023-05-23T14:32:11.302Z,38.46
2023-05-23T14:34:40.400Z,38.33
2023-05-23T14:37:09.806Z,38.29
2023-05-23T14:39:41.280Z,38.25
2023-05-23T14:42:11.172Z,38.20
2023-05-23T14:44:40.652Z,38.22
2023-05-23T14:47:09.905Z,38.17
2023-05-23T14:49:39.053Z,38.28
2023-05-23T14:52:08.509Z,38.27
2023-05-23T14:54:37.521Z,38.24
2023-05-23T14:57:06.981Z,38.19
2023-05-23T14:59:36.503Z,38.24
2023-05-23T15:02:08.441Z,38.29
2023-05-23T15:04:38.396Z,38.30
2023-05-23T15:07:07.723Z,38.25
2023-05-23T15:09:37.459Z,38.29
2023-05-23T15:12:08.745Z,38.27
2023-05-23T15:14:38.354Z,38.26
2023-05-23T15:17:10.643Z,38.25
2023-05-23T15:19:40.779Z,38.27
2023-05-23T15:22:18.746Z,38.05
2023-05-23T15:24:52.136Z,38.01
2023-05-23T15:27:23.442Z,37.92
2023-05-23T15:29:52.693Z,37.86
2023-05-23T15:32:22.351Z,37.83
2023-05-23T15:34:51.559Z,37.69
2023-05-23T15:37:21.020Z,37.69
2023-05-23T15:39:51.089Z,37.69
2023-05-23T15:42:20.282Z,37.66
2023-05-23T15:44:49.778Z,37.66
2023-05-23T15:47:19.917Z,37.58
2023-05-23T15:49:49.377Z,37.57
2023-05-23T15:52:18.847Z,37.49
2023-05-23T15:54:48.017Z,37.45
2023-05-23T15:57:17.756Z,37.42
2023-05-23T15:59:46.734Z,37.43
2023-05-23T16:02:18.165Z,37.38
2023-05-23T16:04:47.399Z,37.34
2023-05-23T16:07:18.533Z,37.17
2023-05-23T16:09:47.927Z,37.15
2023-05-23T16:12:17.130Z,37.12
2023-05-23T16:14:46.283Z,37.02
2023-05-23T16:17:15.509Z,37.02
2023-05-23T16:19:44.928Z,37.00
2023-05-23T16:22:14.154Z,37.00
2023-05-23T16:24:43.440Z,36.70
2023-05-23T16:27:13.184Z,36.71
2023-05-23T16:29:42.172Z,36.67
2023-05-23T16:32:11.774Z,36.61
2023-05-23T16:34:41.447Z,36.56
2023-05-23T16:37:11.082Z,36.57
2023-05-23T16:39:44.015Z,36.81
2023-05-23T16:42:13.365Z,36.70
2023-05-23T16:44:42.969Z,36.64
2023-05-23T16:47:12.566Z,36.72
2023-05-23T16:49:41.813Z,36.70
2023-05-23T16:52:11.114Z,36.72
2023-05-23T16:54:40.665Z,36.76
2023-05-23T16:57:09.815Z,36.78
2023-05-23T16:59:39.060Z,36.75
2023-05-23T17:02:09.253Z,36.75
2023-05-23T17:04:38.582Z,36.71
2023-05-23T17:07:10.562Z,36.67
2023-05-23T17:09:42.498Z,36.60
2023-05-23T17:12:13.668Z,36.60
2023-05-23T17:14:42.890Z,36.48
2023-05-23T17:17:12.188Z,36.65
2023-05-23T17:19:41.932Z,36.69
2023-05-23T17:22:11.139Z,36.58
2023-05-23T17:24:40.581Z,36.57
2023-05-23T17:27:09.992Z,36.51
2023-05-23T17:29:39.147Z,36.43
2023-05-23T17:32:08.786Z,36.49
2023-05-23T17:34:37.910Z,36.45
2023-05-23T17:37:07.427Z,36.40
2023-05-23T17:39:36.816Z,36.41
2023-05-23T17:42:06.687Z,36.33
2023-05-23T17:44:36.155Z,36.35
2023-05-23T17:47:05.493Z,36.40
2023-05-23T17:49:34.952Z,36.31
2023-05-23T17:52:06.900Z,36.36
2023-05-23T17:54:35.623Z,36.59
2023-05-23T17:57:05.868Z,36.22
2023-05-23T17:59:35.029Z,36.29
2023-05-23T18:02:05.998Z,36.28
2023-05-23T18:04:35.868Z,36.11
2023-05-23T18:07:07.176Z,36.18
2023-05-23T18:09:36.422Z,36.11
2023-05-23T18:12:06.102Z,36.13
2023-05-23T18:14:36.046Z,36.18
2023-05-23T18:17:05.364Z,36.12
2023-05-23T18:19:35.329Z,36.06
2023-05-23T18:22:04.608Z,36.04
2023-05-23T18:24:33.900Z,36.04
2023-05-23T18:27:04.659Z,36.03
2023-05-23T18:29:34.084Z,36.02
2023-05-23T18:32:03.657Z,36.04
2023-05-23T18:34:33.019Z,35.99
2023-05-23T18:37:04.296Z,35.87
2023-05-23T18:39:33.537Z,35.95
2023-05-23T18:42:02.954Z,35.97
2023-05-23T18:44:32.146Z,35.95
2023-05-23T18:47:01.516Z,36.17
2023-05-23T18:49:30.733Z,36.12
2023-05-23T18:52:00.738Z,36.11
2023-05-23T18:54:29.900Z,36.18
2023-05-23T18:56:59.187Z,36.23
2023-05-23T18:59:28.539Z,36.28
2023-05-23T19:02:00.388Z,36.42
2023-05-23T19:04:29.901Z,36.41
2023-05-23T19:06:59.537Z,36.27
2023-05-23T19:09:29.041Z,36.38
2023-05-23T19:11:58.403Z,36.07
2023-05-23T19:14:27.460Z,36.03
2023-05-23T19:16:57.004Z,35.60
2023-05-23T19:19:27.915Z,35.22
2023-05-23T19:21:59.428Z,34.78
2023-05-23T19:24:28.784Z,34.56
2023-05-23T19:26:58.322Z,34.08
2023-05-23T19:29:28.204Z,33.90
2023-05-23T19:31:57.509Z,33.85
2023-05-23T19:34:27.436Z,33.85
2023-05-23T19:36:56.901Z,33.74
2023-05-23T19:39:26.071Z,33.66
2023-05-23T19:41:55.509Z,33.63
2023-05-23T19:44:25.250Z,33.42
2023-05-23T19:46:54.483Z,33.09
2023-05-23T19:49:24.176Z,32.29
2023-05-23T19:51:53.485Z,31.50
2023-05-23T19:54:24.284Z,31.15
2023-05-23T19:56:54.621Z,31.27
2023-05-23T19:59:23.575Z,30.92
2023-05-23T20:01:52.784Z,30.93
2023-05-23T20:04:25.247Z,30.83
2023-05-23T20:06:54.373Z,31.16
2023-05-23T20:09:24.180Z,30.59
2023-05-23T20:11:53.679Z,30.58
2023-05-23T20:14:23.174Z,30.62
2023-05-23T20:16:54.966Z,30.33
2023-05-23T20:19:24.247Z,30.24
2023-05-23T20:21:53.568Z,29.69
2023-05-23T20:24:23.107Z,29.40
2023-05-23T20:26:52.702Z,29.29
2023-05-23T20:29:22.748Z,29.11
2023-05-23T20:31:52.069Z,28.71
2023-05-23T20:34:22.077Z,28.65
2023-05-23T20:36:51.341Z,28.39
2023-05-23T20:39:22.147Z,28.30
2023-05-23T20:41:51.689Z,28.36
2023-05-23T20:44:21.245Z,28.32
2023-05-23T20:46:50.819Z,28.33
2023-05-23T20:49:20.209Z,28.39
2023-05-23T20:51:49.365Z,28.47
2023-05-23T20:54:18.910Z,28.22
2023-05-23T20:56:48.240Z,28.02
2023-05-23T20:59:19.137Z,28.13
2023-05-23T21:24:22.998Z,28.81
2023-05-23T21:26:53.221Z,29.17
2023-05-23T21:29:22.327Z,29.19
2023-05-23T21:31:51.604Z,29.21
2023-05-23T21:34:24.330Z,29.26
2023-05-23T21:36:54.527Z,29.45
2023-05-23T21:39:23.938Z,29.15
2023-05-23T21:41:53.004Z,29.49
2023-05-23T21:44:22.448Z,29.61
2023-05-23T21:46:52.066Z,29.80
2023-05-23T21:49:21.580Z,29.75
2023-05-23T21:51:51.270Z,29.59
2023-05-23T21:58:17.338Z,29.78
2023-05-23T22:00:50.080Z,29.76
2023-05-23T22:03:38.315Z,29.91
2023-05-23T22:06:08.084Z,29.96
2023-05-23T22:08:59.048Z,30.14
2023-05-23T22:11:34.754Z,29.98
2023-05-23T22:17:58.816Z,29.82
2023-05-23T22:21:29.632Z,30.13
2023-05-23T22:28:21.304Z,29.92
2023-05-23T22:30:50.576Z,29.88
2023-05-23T22:33:19.692Z,29.61
2023-05-23T22:36:26.236Z,29.91
2023-05-23T22:38:55.810Z,29.85
2023-05-23T22:45:43.577Z,29.71
2023-05-23T22:48:12.902Z,29.71
2023-05-23T22:50:42.353Z,29.59
2023-05-23T22:53:12.869Z,29.44
2023-05-23T22:55:42.223Z,29.56
2023-05-23T22:58:11.665Z,29.46
2023-05-23T23:00:41.236Z,29.53
2023-05-23T23:03:10.641Z,29.48
2023-05-23T23:05:40.107Z,29.35
2023-05-23T23:08:09.555Z,29.44
2023-05-23T23:10:39.199Z,29.40
2023-05-23T23:13:48.907Z,29.62
2023-05-23T23:16:20.423Z,29.48
2023-05-23T23:18:50.280Z,29.58
2023-05-23T23:21:19.605Z,29.57
2023-05-23T23:23:49.316Z,29.29
2023-05-23T23:26:18.537Z,29.37
2023-05-23T23:28:47.824Z,29.26
2023-05-23T23:31:17.160Z,29.40
2023-05-23T23:33:46.490Z,29.24
2023-05-23T23:36:15.639Z,29.43
2023-05-23T23:38:45.295Z,29.40
2023-05-23T23:41:14.367Z,29.34
2023-05-23T23:43:43.630Z,29.39
2023-05-23T23:46:13.286Z,29.38
2023-05-23T23:48:42.591Z,29.27
2023-05-23T23:51:11.552Z,29.12
2023-05-23T23:53:41.038Z,29.30
2023-05-23T23:56:10.200Z,29.26
2023-05-23T23:58:39.326Z,29.33
